aviador You're here:

CYYU Decoded Metar

KAPUSKASING in ON, CANADA
Report Time2018-07-21 18:00:00
UTC Time2018-07-21 19:07:11
Flight Rules Old
Wind040° at 06 kt
W.Decomp.*RWY 10: 3.9 kt HW 4.6 kt LCW
RWY 35: 3.0 kt HW 5.2 kt RCW
W.Rank040° ranks 29
Current wind is below 040° avg. (6.4)
Visibility9999 m
Phenomena:N/A
Clouds:Scattered 170 Hf
Overcast 240 Hf
Expected CloudBase > 2,800 ft AGL from Temp-Dew spread
Ceiling24,000 ft
Temp23°C (ISA +9)
Dew Point16°C (65% RH)
AAT22.8°C
QNH1018 hPa
Density Alt1,923 ft
Elevation745 ft
Report Wrong Elevation
Raw Report
CYYU 211800Z 04006KT 020V080 15SM SCT170 OVC240 23/16 A3005 RMK
AS3CI5 SLP179 DENSITY ALT 1700FT=

Extra information for CYYU:More info

Metar Taf Metar & Taf Last 4 Metars F.Rules Stats Wind Profile Meteogram Temp Stats Airport Information Weather charts Add Link Nearby VenuesMetar ALERT Operation Metar Decoded Social comments